createdAt,value
2018-04-10T00:00:02.183Z,12.20
2018-04-10T00:02:29.774Z,8.87
2018-04-10T00:04:57.325Z,7.47
2018-04-10T00:07:24.872Z,8.17
2018-04-10T00:09:52.467Z,10.57
2018-04-10T00:12:20.006Z,6.63
2018-04-10T00:14:47.548Z,9.33
2018-04-10T00:17:15.110Z,8.67
2018-04-10T00:19:42.648Z,8.90
2018-04-10T00:22:10.201Z,13.77
2018-04-10T00:24:37.791Z,8.60
2018-04-10T00:27:05.342Z,9.47
2018-04-10T00:29:32.933Z,9.50
2018-04-10T00:32:00.515Z,8.03
2018-04-10T00:34:28.102Z,10.77
2018-04-10T00:36:55.683Z,9.20
2018-04-10T00:39:23.251Z,12.27
2018-04-10T00:41:50.877Z,10.07
2018-04-10T00:44:18.392Z,8.97
2018-04-10T00:46:45.970Z,11.53
2018-04-10T00:49:13.519Z,9.10
2018-04-10T00:54:34.089Z,11.33
2018-04-10T00:57:01.663Z,9.63
2018-04-10T00:59:29.255Z,9.03
2018-04-10T01:01:56.856Z,10.70
2018-04-10T01:04:24.388Z,8.57
2018-04-10T01:06:52.708Z,11.33
2018-04-10T01:09:20.275Z,9.00
2018-04-10T01:11:47.831Z,10.33
2018-04-10T01:14:15.388Z,10.93
2018-04-10T01:16:42.924Z,11.70
2018-04-10T01:19:10.483Z,10.33
2018-04-10T01:21:38.129Z,6.83
2018-04-10T01:24:05.656Z,8.83
2018-04-10T01:26:33.259Z,9.33
2018-04-10T01:29:00.809Z,9.80
2018-04-10T01:31:28.396Z,8.10
2018-04-10T01:33:55.926Z,9.60
2018-04-10T01:36:23.535Z,14.43
2018-04-10T01:38:51.087Z,9.17
2018-04-10T01:41:18.663Z,10.83
2018-04-10T01:43:46.217Z,10.03
2018-04-10T01:46:13.753Z,8.13
2018-04-10T01:48:41.335Z,7.80
2018-04-10T01:51:08.923Z,7.77
2018-04-10T01:53:36.453Z,9.63
2018-04-10T01:56:04.019Z,8.00
2018-04-10T01:58:31.542Z,9.97
2018-04-10T02:00:59.054Z,7.47
2018-04-10T02:03:26.607Z,12.30
2018-04-10T02:05:54.138Z,6.87
2018-04-10T02:08:21.768Z,8.27
2018-04-10T02:10:49.325Z,8.97
2018-04-10T02:13:16.868Z,10.50
2018-04-10T02:15:45.226Z,11.20
2018-04-10T02:18:12.776Z,6.53
2018-04-10T02:20:40.296Z,5.93
2018-04-10T02:23:07.841Z,8.87
2018-04-10T02:25:35.443Z,6.77
2018-04-10T02:28:03.055Z,10.50
2018-04-10T02:30:30.593Z,10.07
2018-04-10T02:32:58.166Z,8.93
2018-04-10T02:35:25.699Z,9.43
2018-04-10T02:37:53.234Z,6.40
2018-04-10T02:40:20.774Z,6.67
2018-04-10T02:42:48.328Z,8.27
2018-04-10T02:45:15.878Z,11.60
2018-04-10T02:47:43.463Z,10.03
2018-04-10T02:50:11.019Z,9.40
2018-04-10T02:52:38.535Z,10.30
2018-04-10T02:55:06.101Z,9.33
2018-04-10T02:57:33.646Z,5.67
2018-04-10T03:00:01.953Z,6.87
2018-04-10T03:02:29.515Z,7.40
2018-04-10T03:04:57.088Z,9.13
2018-04-10T03:07:24.630Z,6.47
2018-04-10T03:09:52.163Z,6.13
2018-04-10T03:12:20.433Z,6.97
2018-04-10T03:14:48.750Z,11.23
2018-04-10T03:17:16.285Z,10.17
2018-04-10T03:19:43.833Z,7.67
2018-04-10T03:22:12.164Z,9.33
2018-04-10T03:24:39.719Z,7.43
2018-04-10T03:27:07.234Z,4.70
2018-04-10T03:29:34.762Z,0.73
2018-04-10T03:32:02.286Z,0.40
2018-04-10T03:34:29.795Z,0.40
2018-04-10T03:36:58.130Z,0.40
2018-04-10T03:39:25.662Z,0.40
2018-04-10T03:41:53.191Z,0.77
2018-04-10T03:44:20.775Z,0.40
2018-04-10T03:46:49.055Z,0.50
2018-04-10T03:49:16.585Z,0.50
2018-04-10T03:51:44.879Z,0.40
2018-04-10T03:54:12.406Z,0.43
2018-04-10T03:56:39.967Z,0.40
2018-04-10T03:59:08.268Z,0.60
2018-04-10T04:01:35.866Z,0.50
2018-04-10T04:04:03.398Z,1.13
2018-04-10T04:06:30.943Z,0.50
2018-04-10T04:08:58.501Z,0.47
2018-04-10T04:11:26.038Z,0.40
2018-04-10T04:13:54.492Z,0.50
2018-04-10T04:16:33.750Z,0.70
2018-04-10T04:19:13.765Z,0.47
2018-04-10T04:22:07.026Z,0.30
2018-04-10T04:24:34.546Z,0.63
2018-04-10T04:27:02.069Z,0.37
2018-04-10T04:29:29.597Z,0.40
2018-04-10T04:31:57.126Z,0.60
2018-04-10T04:34:24.639Z,0.50
2018-04-10T04:36:52.226Z,1.37
2018-04-10T04:39:19.730Z,1.23
2018-04-10T04:41:47.237Z,0.80
2018-04-10T04:44:14.808Z,0.70
2018-04-10T04:46:42.362Z,0.63
2018-04-10T04:49:09.943Z,0.50
2018-04-10T04:51:38.336Z,0.70
2018-04-10T04:54:05.879Z,0.60
2018-04-10T04:56:33.474Z,0.50
2018-04-10T04:59:01.017Z,0.60
2018-04-10T05:01:38.266Z,0.60
2018-04-10T05:04:05.831Z,0.50
2018-04-10T05:06:33.442Z,0.50
2018-04-10T05:09:01.010Z,0.53
2018-04-10T05:11:28.750Z,0.67
2018-04-10T05:13:56.361Z,0.73
2018-04-10T05:16:24.543Z,0.80
2018-04-10T05:18:52.045Z,1.83
2018-04-10T05:21:19.749Z,0.77
2018-04-10T05:23:47.267Z,0.60
2018-04-10T05:26:14.761Z,0.97
2018-04-10T05:28:42.718Z,0.80
2018-04-10T05:31:10.224Z,1.67
2018-04-10T05:33:37.722Z,0.63
2018-04-10T05:36:05.258Z,1.23
2018-04-10T05:38:32.775Z,0.70
2018-04-10T05:41:00.342Z,0.70
2018-04-10T05:43:27.979Z,0.60
2018-04-10T05:45:56.374Z,0.60
2018-04-10T05:48:23.942Z,1.63
2018-04-10T05:50:51.457Z,1.00
2018-04-10T05:53:19.057Z,0.60
2018-04-10T05:55:46.607Z,0.60
2018-04-10T05:58:14.218Z,2.13
2018-04-10T06:00:41.978Z,1.50
2018-04-10T06:03:09.538Z,6.23
2018-04-10T06:05:37.176Z,4.03
2018-04-10T06:08:04.700Z,8.17
2018-04-10T06:10:32.202Z,10.83
2018-04-10T06:12:59.766Z,12.23
2018-04-10T06:15:27.398Z,4.17
2018-04-10T06:17:54.919Z,1.50
2018-04-10T06:20:22.498Z,1.03
2018-04-10T06:22:50.769Z,0.40
2018-04-10T06:25:19.051Z,1.10
2018-04-10T06:27:46.643Z,0.60
2018-04-10T06:30:14.169Z,1.10
2018-04-10T06:32:42.470Z,1.47
2018-04-10T06:35:10.035Z,0.47
2018-04-10T06:37:37.567Z,0.40
2018-04-10T06:40:05.086Z,0.40
2018-04-10T06:42:32.626Z,0.40
2018-04-10T06:45:00.228Z,0.50
2018-04-10T06:47:28.545Z,0.50
2018-04-10T06:49:56.247Z,0.53
2018-04-10T06:52:23.829Z,0.50
2018-04-10T06:54:51.391Z,0.43
2018-04-10T06:57:18.979Z,0.50
2018-04-10T06:59:46.483Z,0.40
2018-04-10T07:02:14.077Z,0.37
2018-04-10T07:04:43.022Z,0.30
2018-04-10T07:07:10.525Z,0.40
2018-04-10T07:09:38.847Z,0.40
2018-04-10T07:12:06.426Z,0.43
2018-04-10T07:14:34.011Z,0.50
2018-04-10T07:17:02.410Z,0.90
2018-04-10T07:19:30.668Z,0.40
2018-04-10T07:21:58.325Z,0.50
2018-04-10T07:24:26.616Z,0.40
2018-04-10T07:26:54.278Z,2.20
2018-04-10T07:29:21.818Z,0.50
2018-04-10T07:31:54.314Z,1.13
2018-04-10T07:34:21.903Z,0.43
2018-04-10T07:36:49.497Z,0.30
2018-04-10T07:39:17.127Z,0.30
2018-04-10T07:41:44.799Z,0.40
2018-04-10T07:44:12.413Z,0.40
2018-04-10T07:46:39.993Z,0.50
2018-04-10T07:49:07.602Z,1.30
2018-04-10T07:51:36.010Z,0.40
2018-04-10T07:54:03.595Z,0.50
2018-04-10T07:56:31.117Z,0.50
2018-04-10T07:58:59.406Z,0.40
2018-04-10T08:01:26.959Z,0.50
2018-04-10T08:03:54.480Z,0.40
2018-04-10T08:06:22.009Z,0.43
2018-04-10T08:08:49.515Z,1.23
2018-04-10T08:11:17.098Z,0.40
2018-04-10T08:13:44.629Z,0.43
2018-04-10T08:16:12.175Z,0.40
2018-04-10T08:18:39.666Z,0.40
2018-04-10T08:21:07.235Z,1.23
2018-04-10T08:23:34.747Z,0.40
2018-04-10T08:26:02.275Z,0.50
2018-04-10T08:28:29.882Z,0.63
2018-04-10T08:30:58.165Z,1.37
2018-04-10T08:33:26.462Z,2.20
2018-04-10T08:35:54.076Z,2.60
2018-04-10T08:38:21.594Z,0.50
2018-04-10T08:40:49.128Z,0.60
2018-04-10T08:43:16.654Z,0.40
2018-04-10T08:45:44.206Z,0.50
2018-04-10T08:48:11.799Z,1.50
2018-04-10T08:53:33.525Z,0.60
2018-04-10T08:56:01.059Z,0.87
2018-04-10T08:58:28.615Z,0.50
2018-04-10T09:00:56.127Z,0.50
2018-04-10T09:03:23.747Z,0.50
2018-04-10T09:05:52.175Z,1.27
2018-04-10T09:08:19.741Z,0.50
2018-04-10T09:10:47.327Z,0.50
2018-04-10T09:13:14.955Z,0.63
2018-04-10T09:15:42.583Z,0.60
2018-04-10T09:18:10.899Z,0.60
2018-04-10T09:20:57.431Z,1.50
2018-04-10T09:23:25.055Z,1.77
2018-04-10T09:25:52.631Z,3.23
2018-04-10T09:28:20.228Z,0.60
2018-04-10T09:30:47.823Z,0.50
2018-04-10T09:33:15.364Z,0.57
2018-04-10T09:35:43.782Z,0.97
2018-04-10T09:38:11.369Z,1.90
2018-04-10T09:40:38.953Z,0.50
2018-04-10T09:43:06.548Z,0.60
2018-04-10T09:45:34.150Z,1.13
2018-04-10T09:48:01.710Z,0.60
2018-04-10T09:50:29.282Z,0.60
2018-04-10T09:52:56.933Z,1.00
2018-04-10T09:55:24.528Z,0.70
2018-04-10T09:57:52.174Z,0.50
2018-04-10T10:00:25.472Z,1.43
2018-04-10T10:02:53.106Z,2.30
2018-04-10T10:05:20.842Z,1.73
2018-04-10T10:07:48.446Z,0.60
2018-04-10T10:10:21.003Z,0.83
2018-04-10T10:12:48.591Z,0.50
2018-04-10T10:15:16.210Z,0.97
2018-04-10T10:17:43.778Z,2.00
2018-04-10T10:20:11.433Z,1.40
2018-04-10T10:22:39.051Z,1.33
2018-04-10T10:25:06.631Z,0.50
2018-04-10T10:27:34.232Z,1.00
2018-04-10T10:30:01.826Z,0.73
2018-04-10T10:32:29.450Z,0.50
2018-04-10T10:34:57.182Z,0.60
2018-04-10T10:37:24.755Z,0.57
2018-04-10T10:39:52.359Z,0.70
2018-04-10T10:42:19.965Z,0.70
2018-04-10T10:44:47.560Z,0.63
2018-04-10T10:47:15.970Z,0.60
2018-04-10T10:49:43.559Z,0.50
2018-04-10T10:52:20.930Z,0.70
2018-04-10T10:54:48.494Z,0.63
2018-04-10T10:57:16.074Z,0.70
2018-04-10T10:59:49.870Z,0.60
2018-04-10T11:02:17.516Z,1.70
2018-04-10T11:04:45.038Z,0.60
2018-04-10T11:07:13.376Z,1.13
2018-04-10T11:09:40.977Z,0.97
2018-04-10T11:12:09.380Z,9.37
2018-04-10T11:14:36.894Z,0.50
2018-04-10T11:17:04.417Z,0.73
2018-04-10T11:19:31.988Z,0.60
2018-04-10T11:21:59.514Z,0.73
2018-04-10T11:24:27.082Z,0.60
2018-04-10T11:26:54.639Z,0.60
2018-04-10T11:29:22.181Z,1.03
2018-04-10T11:31:49.733Z,0.60
2018-04-10T11:34:18.051Z,0.70
2018-04-10T11:36:46.275Z,1.57
2018-04-10T11:39:13.875Z,1.07
2018-04-10T11:41:41.393Z,0.73
2018-04-10T11:44:08.990Z,1.03
2018-04-10T11:46:36.510Z,0.53
2018-04-10T11:49:04.029Z,1.97
2018-04-10T11:51:31.559Z,0.77
2018-04-10T11:53:59.124Z,0.80
2018-04-10T11:56:26.756Z,0.83
2018-04-10T11:58:54.352Z,0.53
2018-04-10T12:01:21.878Z,1.10
2018-04-10T12:03:49.418Z,0.60
2018-04-10T12:06:16.975Z,0.60
2018-04-10T12:08:45.350Z,0.70
2018-04-10T12:11:12.919Z,0.53
2018-04-10T12:13:40.474Z,0.67
2018-04-10T12:16:08.872Z,1.10
2018-04-10T12:18:37.422Z,0.83
2018-04-10T12:21:04.986Z,1.30
2018-04-10T12:23:32.554Z,0.87
2018-04-10T12:26:00.865Z,0.90
2018-04-10T12:28:28.409Z,0.87
2018-04-10T12:30:55.969Z,0.77
2018-04-10T12:33:23.524Z,0.50
2018-04-10T12:35:51.043Z,0.50
2018-04-10T12:38:18.569Z,2.23
2018-04-10T12:40:46.090Z,2.63
2018-04-10T12:43:13.654Z,0.70
2018-04-10T12:45:41.221Z,0.60
2018-04-10T12:48:08.739Z,1.60
2018-04-10T12:50:36.288Z,0.47
2018-04-10T12:53:05.391Z,3.50
2018-04-10T12:55:32.913Z,1.50
2018-04-10T12:58:00.475Z,1.90
2018-04-10T13:00:28.594Z,0.50
2018-04-10T13:02:56.189Z,0.60
2018-04-10T13:05:23.721Z,1.03
2018-04-10T13:07:51.269Z,0.50
2018-04-10T13:10:18.838Z,0.60
2018-04-10T13:12:46.341Z,0.50
2018-04-10T13:15:13.882Z,0.60
2018-04-10T13:17:41.474Z,0.40
2018-04-10T13:20:09.075Z,0.73
2018-04-10T13:22:36.686Z,0.40
2018-04-10T13:25:04.230Z,0.73
2018-04-10T13:27:31.835Z,0.63
2018-04-10T13:29:59.333Z,0.50
2018-04-10T13:32:26.930Z,0.40
2018-04-10T13:34:54.440Z,0.30
2018-04-10T13:37:21.970Z,0.77
2018-04-10T13:39:49.550Z,0.33
2018-04-10T13:42:17.204Z,1.00
2018-04-10T13:44:45.543Z,0.30
2018-04-10T13:47:13.113Z,0.73
2018-04-10T13:49:40.632Z,0.50
2018-04-10T13:52:08.195Z,1.43
2018-04-10T13:54:35.776Z,2.23
2018-04-10T13:57:03.285Z,0.30
2018-04-10T13:59:30.845Z,0.30
2018-04-10T14:01:58.389Z,0.50
2018-04-10T14:04:26.676Z,0.60
2018-04-10T14:06:54.256Z,0.40
2018-04-10T14:09:21.766Z,0.30
2018-04-10T14:11:54.275Z,0.40
2018-04-10T14:14:21.871Z,1.63
2018-04-10T14:16:49.441Z,0.20
2018-04-10T14:19:16.994Z,0.40
2018-04-10T14:21:44.590Z,0.30
2018-04-10T14:24:12.135Z,1.50
2018-04-10T14:26:39.691Z,0.40
2018-04-10T14:29:07.217Z,0.30
2018-04-10T14:31:34.787Z,0.30
2018-04-10T14:34:02.287Z,0.43
2018-04-10T14:36:29.875Z,0.53
2018-04-10T14:38:57.438Z,0.30
2018-04-10T14:41:24.995Z,0.60
2018-04-10T14:43:52.526Z,0.30
2018-04-10T14:46:20.116Z,0.30
2018-04-10T14:48:47.637Z,0.30
2018-04-10T14:51:15.149Z,0.30
2018-04-10T14:53:42.710Z,1.33
2018-04-10T14:56:10.300Z,1.33
2018-04-10T14:58:39.011Z,0.60
2018-04-10T15:01:06.766Z,0.40
2018-04-10T15:03:34.378Z,0.40
2018-04-10T15:06:01.941Z,0.40
2018-04-10T15:08:30.623Z,2.10
2018-04-10T15:10:58.831Z,0.40
2018-04-10T15:13:26.804Z,0.50
2018-04-10T15:15:54.406Z,0.40
2018-04-10T15:18:22.030Z,1.60
2018-04-10T15:20:49.735Z,1.13
2018-04-10T15:23:17.360Z,1.90
2018-04-10T15:25:44.914Z,3.20
2018-04-10T15:28:13.517Z,0.40
2018-04-10T15:30:41.145Z,0.40
2018-04-10T15:33:09.492Z,0.40
2018-04-10T15:35:38.708Z,0.43
2018-04-10T15:38:09.439Z,1.00
2018-04-10T15:40:36.981Z,0.60
2018-04-10T15:43:04.578Z,0.57
2018-04-10T15:45:32.212Z,0.87
2018-04-10T15:47:59.744Z,0.83
2018-04-10T15:50:27.295Z,0.40
2018-04-10T15:52:54.885Z,0.37
2018-04-10T15:55:22.423Z,0.50
2018-04-10T15:57:49.991Z,1.33
2018-04-10T16:00:17.526Z,1.43
2018-04-10T16:02:45.095Z,1.13
2018-04-10T16:05:12.570Z,0.80
2018-04-10T16:07:40.254Z,0.40
2018-04-10T16:10:07.756Z,1.73
2018-04-10T16:12:35.344Z,0.60
2018-04-10T16:15:02.946Z,0.50
2018-04-10T16:17:31.316Z,0.87
2018-04-10T16:19:59.681Z,0.97
2018-04-10T16:22:27.269Z,0.37
2018-04-10T16:24:54.827Z,0.70
2018-04-10T16:27:22.449Z,3.13
2018-04-10T16:29:49.968Z,2.13
2018-04-10T16:32:17.502Z,1.00
2018-04-10T16:34:45.034Z,3.63
2018-04-10T16:37:12.607Z,1.13
2018-04-10T16:39:40.179Z,0.60
2018-04-10T16:42:08.563Z,2.33
2018-04-10T16:44:36.116Z,2.83
2018-04-10T16:47:03.654Z,1.60
2018-04-10T16:49:31.235Z,1.87
2018-04-10T16:51:58.790Z,1.90
2018-04-10T16:54:26.353Z,2.03
2018-04-10T16:56:54.857Z,3.80
2018-04-10T16:59:23.166Z,1.60
2018-04-10T17:01:50.817Z,2.40
2018-04-10T17:04:19.357Z,2.23
2018-04-10T17:06:52.870Z,1.57
2018-04-10T17:09:20.512Z,2.53
2018-04-10T17:11:48.127Z,6.37
2018-04-10T17:14:15.687Z,4.90
2018-04-10T17:16:43.343Z,2.87
2018-04-10T17:19:11.196Z,2.80
2018-04-10T17:21:38.836Z,5.33
2018-04-10T17:24:06.401Z,2.20
2018-04-10T17:26:34.701Z,2.00
2018-04-10T17:29:02.237Z,3.10
2018-04-10T17:31:29.982Z,2.37
2018-04-10T17:33:57.586Z,2.30
2018-04-10T17:36:25.158Z,2.10
2018-04-10T17:38:52.758Z,1.53
2018-04-10T17:41:20.298Z,1.80
2018-04-10T17:43:47.863Z,2.93
2018-04-10T17:46:15.398Z,1.77
2018-04-10T17:48:42.892Z,1.63
2018-04-10T17:51:10.467Z,3.83
2018-04-10T17:53:38.042Z,2.33
2018-04-10T17:56:05.607Z,2.23
2018-04-10T17:58:33.117Z,1.20
2018-04-10T18:01:00.676Z,2.80
2018-04-10T18:03:28.235Z,3.70
2018-04-10T18:05:55.823Z,2.43
2018-04-10T18:08:23.352Z,1.67
2018-04-10T18:10:50.908Z,1.73
2018-04-10T18:13:18.444Z,1.43
2018-04-10T18:15:45.953Z,2.47
2018-04-10T18:18:13.496Z,1.87
2018-04-10T18:20:41.070Z,3.83
2018-04-10T18:23:08.634Z,2.13
2018-04-10T18:25:36.214Z,3.83
2018-04-10T18:28:03.735Z,3.70
2018-04-10T18:30:31.287Z,3.23
2018-04-10T18:32:58.885Z,2.30
2018-04-10T18:35:26.435Z,1.93
2018-04-10T18:37:53.993Z,1.57
2018-04-10T18:40:21.513Z,1.80
2018-04-10T18:42:49.901Z,2.87
2018-04-10T18:45:17.459Z,2.87
2018-04-10T18:47:44.974Z,2.30
2018-04-10T18:50:12.553Z,1.80
2018-04-10T18:52:40.850Z,0.80
2018-04-10T18:55:08.390Z,1.00
2018-04-10T18:57:36.747Z,2.53
2018-04-10T19:00:04.283Z,3.10
2018-04-10T19:02:31.807Z,2.17
2018-04-10T19:04:59.383Z,1.10
2018-04-10T19:07:26.902Z,0.30
2018-04-10T19:09:54.432Z,0.40
2018-04-10T19:12:22.536Z,0.83
2018-04-10T19:14:50.050Z,0.87
2018-04-10T19:17:17.562Z,0.40
2018-04-10T19:19:45.170Z,0.67
2018-04-10T19:22:12.736Z,0.83
2018-04-10T19:24:40.276Z,0.30
2018-04-10T19:27:07.828Z,0.40
2018-04-10T19:29:35.352Z,0.40
2018-04-10T19:32:02.934Z,0.43
2018-04-10T19:34:30.484Z,0.50
2018-04-10T19:36:58.016Z,0.40
2018-04-10T19:39:26.319Z,0.60
2018-04-10T19:41:53.931Z,2.53
2018-04-10T19:44:22.227Z,0.37
2018-04-10T19:46:49.729Z,0.50
2018-04-10T19:49:17.294Z,0.50
2018-04-10T19:51:44.802Z,0.50
2018-04-10T19:54:13.117Z,3.73
2018-04-10T19:56:40.691Z,0.57
2018-04-10T19:59:08.214Z,0.50
2018-04-10T20:01:35.730Z,0.47
2018-04-10T20:04:03.283Z,0.33
2018-04-10T20:06:30.780Z,0.60
2018-04-10T20:08:58.298Z,3.03
2018-04-10T20:11:25.814Z,0.40
2018-04-10T20:13:53.330Z,1.20
2018-04-10T20:16:20.898Z,0.50
2018-04-10T20:18:49.202Z,1.93
2018-04-10T20:21:16.738Z,0.50
2018-04-10T20:23:45.034Z,0.80
2018-04-10T20:26:12.529Z,0.50
2018-04-10T20:28:40.086Z,0.50
2018-04-10T20:31:07.774Z,0.60
2018-04-10T20:33:35.301Z,0.50
2018-04-10T20:36:02.810Z,0.50
2018-04-10T20:38:31.963Z,0.50
2018-04-10T20:40:59.480Z,1.43
2018-04-10T20:43:27.003Z,1.57
2018-04-10T20:45:54.619Z,0.40
2018-04-10T20:48:22.149Z,0.73
2018-04-10T20:50:50.518Z,0.97
2018-04-10T20:53:18.835Z,0.50
2018-04-10T20:55:46.351Z,0.50
2018-04-10T20:58:13.885Z,0.60
2018-04-10T21:00:41.589Z,0.40
2018-04-10T21:03:09.123Z,0.40
2018-04-10T21:05:37.435Z,0.80
2018-04-10T21:08:04.962Z,0.60
2018-04-10T21:10:33.267Z,0.97
2018-04-10T21:13:00.809Z,0.50
2018-04-10T21:15:29.102Z,0.50
2018-04-10T21:17:56.629Z,0.50
2018-04-10T21:20:30.109Z,0.40
2018-04-10T21:22:57.652Z,0.97
2018-04-10T21:25:25.153Z,0.50
2018-04-10T21:27:52.683Z,0.70
2018-04-10T21:30:20.273Z,0.60
2018-04-10T21:32:48.560Z,0.50
2018-04-10T21:35:16.102Z,1.03
2018-04-10T21:37:44.395Z,0.63
2018-04-10T21:40:11.918Z,0.90
2018-04-10T21:42:45.177Z,0.73
2018-04-10T21:45:12.710Z,0.60
2018-04-10T21:47:40.265Z,0.70
2018-04-10T21:50:07.809Z,1.53
2018-04-10T21:52:35.379Z,0.63
2018-04-10T21:55:02.905Z,0.60
2018-04-10T21:57:30.498Z,2.20
2018-04-10T21:59:58.062Z,0.60
2018-04-10T22:02:25.599Z,0.93
2018-04-10T22:04:53.974Z,0.57
2018-04-10T22:07:21.561Z,0.63
2018-04-10T22:09:49.310Z,1.60
2018-04-10T22:12:17.774Z,0.60
2018-04-10T22:14:46.094Z,0.80
2018-04-10T22:17:13.650Z,0.50
2018-04-10T22:19:41.950Z,0.50
2018-04-10T22:25:11.885Z,0.90
2018-04-10T22:27:39.412Z,0.80
2018-04-10T22:30:06.981Z,0.70
2018-04-10T22:32:34.572Z,0.40
2018-04-10T22:35:02.867Z,0.50
2018-04-10T22:37:30.411Z,0.63
2018-04-10T22:39:57.989Z,0.60
2018-04-10T22:42:25.640Z,0.60
2018-04-10T22:44:53.167Z,0.43
2018-04-10T22:47:20.714Z,0.63
2018-04-10T22:49:48.271Z,0.43
2018-04-10T22:52:15.779Z,0.70
2018-04-10T22:54:43.310Z,0.40
2018-04-10T22:57:10.863Z,0.63
2018-04-10T22:59:38.382Z,0.60
2018-04-10T23:02:05.941Z,0.67
2018-04-10T23:04:33.507Z,1.10
2018-04-10T23:07:01.063Z,0.53
2018-04-10T23:09:28.622Z,0.50
2018-04-10T23:12:01.284Z,1.30
2018-04-10T23:14:28.831Z,0.53
2018-04-10T23:16:57.132Z,0.50
2018-04-10T23:19:24.741Z,0.50
2018-04-10T23:21:52.271Z,0.40
2018-04-10T23:24:19.813Z,0.67
2018-04-10T23:26:47.367Z,0.40
2018-04-10T23:29:14.875Z,0.60
2018-04-10T23:31:42.439Z,0.50
2018-04-10T23:34:09.967Z,0.50
2018-04-10T23:36:43.156Z,0.50
2018-04-10T23:39:10.733Z,0.67
2018-04-10T23:41:38.269Z,0.50
2018-04-10T23:44:05.798Z,0.50
2018-04-10T23:46:34.094Z,0.63
2018-04-10T23:49:15.241Z,2.67
2018-04-10T23:51:57.139Z,0.50
2018-04-10T23:54:24.664Z,0.57
2018-04-10T23:56:52.238Z,1.87
2018-04-10T23:59:19.781Z,0.50
